Hall Beach, Canada
Current Conditions -  °F | °C
As of 6:00 AM on Monday 22 Dec 2014 (Local Time) from CYUX Reporting Station
Clear Clear  
Wind Chill: -23°   Ceiling: Unl
Heat Index: -8°   Visibility: 9mi
Dew Point: -11°   Wind: 8mph
Humidity: 84%   Direction: 60°ENE
Pressure: 30.01"   Gusts: NA
Location:  68.78°N, 81.22°W
Report Text: CYUX 221100Z AUTO 06007KT 9SM CLR M22/M24 A3001 RMK SLP162
Loading
Personal Weather Stations






























Interactive Weather Map New forecast layout! Learn more

10-Day Weather Forecast

Advertisements
Track Severe Weather on mobile